sensor_id;sensor_type;location;lat;lon;timestamp;temperature;humidity
11540;DHT22;5826;54.756;9.192;2023-08-24T00:01:20;16.00;99.90
11540;DHT22;5826;54.756;9.192;2023-08-24T00:03:46;15.90;99.90
11540;DHT22;5826;54.756;9.192;2023-08-24T00:06:13;15.90;99.90
11540;DHT22;5826;54.756;9.192;2023-08-24T00:08:38;15.90;99.90
11540;DHT22;5826;54.756;9.192;2023-08-24T00:11:04;15.90;99.90
11540;DHT22;5826;54.756;9.192;2023-08-24T00:13:31;15.90;99.90
11540;DHT22;5826;54.756;9.192;2023-08-24T00:15:56;15.90;99.90
11540;DHT22;5826;54.756;9.192;2023-08-24T00:18:22;15.90;99.90
11540;DHT22;5826;54.756;9.192;2023-08-24T00:20:48;15.90;99.90
11540;DHT22;5826;54.756;9.192;2023-08-24T00:23:14;15.80;99.90
11540;DHT22;5826;54.756;9.192;2023-08-24T00:25:39;16.00;99.90
11540;DHT22;5826;54.756;9.192;2023-08-24T00:28:06;15.80;99.90
11540;DHT22;5826;54.756;9.192;2023-08-24T00:30:32;15.70;99.90
11540;DHT22;5826;54.756;9.192;2023-08-24T00:32:57;15.70;99.90
11540;DHT22;5826;54.756;9.192;2023-08-24T00:35:23;15.70;99.90
11540;DHT22;5826;54.756;9.192;2023-08-24T00:37:48;15.70;99.90
11540;DHT22;5826;54.756;9.192;2023-08-24T00:40:15;15.70;99.90
11540;DHT22;5826;54.756;9.192;2023-08-24T00:42:43;15.60;99.90
11540;DHT22;5826;54.756;9.192;2023-08-24T00:45:11;15.60;99.90
11540;DHT22;5826;54.756;9.192;2023-08-24T00:47:38;15.60;99.90
11540;DHT22;5826;54.756;9.192;2023-08-24T00:50:06;15.60;99.90
11540;DHT22;5826;54.756;9.192;2023-08-24T00:52:32;15.60;99.90
11540;DHT22;5826;54.756;9.192;2023-08-24T00:54:59;15.50;99.90
11540;DHT22;5826;54.756;9.192;2023-08-24T00:57:26;15.50;99.90
11540;DHT22;5826;54.756;9.192;2023-08-24T00:59:52;15.50;99.90
11540;DHT22;5826;54.756;9.192;2023-08-24T01:02:17;15.50;99.90
11540;DHT22;5826;54.756;9.192;2023-08-24T01:04:44;15.50;99.90
11540;DHT22;5826;54.756;9.192;2023-08-24T01:07:11;15.50;99.90
11540;DHT22;5826;54.756;9.192;2023-08-24T01:09:37;15.50;99.90
11540;DHT22;5826;54.756;9.192;2023-08-24T01:12:30;15.40;99.90
11540;DHT22;5826;54.756;9.192;2023-08-24T01:15:06;15.40;99.90
11540;DHT22;5826;54.756;9.192;2023-08-24T01:17:34;15.40;99.90
11540;DHT22;5826;54.756;9.192;2023-08-24T01:20:02;15.40;99.90
11540;DHT22;5826;54.756;9.192;2023-08-24T01:25:46;15.40;99.90
11540;DHT22;5826;54.756;9.192;2023-08-24T01:28:14;15.40;99.90
11540;DHT22;5826;54.756;9.192;2023-08-24T01:30:43;15.40;99.90
11540;DHT22;5826;54.756;9.192;2023-08-24T01:33:09;15.30;99.90
11540;DHT22;5826;54.756;9.192;2023-08-24T01:35:38;15.30;99.90
11540;DHT22;5826;54.756;9.192;2023-08-24T01:38:04;15.30;99.90
11540;DHT22;5826;54.756;9.192;2023-08-24T01:40:59;15.30;99.90
11540;DHT22;5826;54.756;9.192;2023-08-24T01:43:29;15.30;99.90
11540;DHT22;5826;54.756;9.192;2023-08-24T01:45:56;15.30;99.90
11540;DHT22;5826;54.756;9.192;2023-08-24T01:48:23;15.30;99.90
11540;DHT22;5826;54.756;9.192;2023-08-24T01:50:50;15.30;99.90
11540;DHT22;5826;54.756;9.192;2023-08-24T01:53:16;15.30;99.90
11540;DHT22;5826;54.756;9.192;2023-08-24T01:55:41;15.30;99.90
11540;DHT22;5826;54.756;9.192;2023-08-24T01:58:08;15.40;99.90
11540;DHT22;5826;54.756;9.192;2023-08-24T02:00:34;15.30;99.90
11540;DHT22;5826;54.756;9.192;2023-08-24T02:02:59;15.40;99.90
11540;DHT22;5826;54.756;9.192;2023-08-24T02:05:25;15.40;99.90
11540;DHT22;5826;54.756;9.192;2023-08-24T02:07:53;15.40;99.90
11540;DHT22;5826;54.756;9.192;2023-08-24T02:10:19;15.40;99.90
11540;DHT22;5826;54.756;9.192;2023-08-24T02:12:45;15.40;99.90
11540;DHT22;5826;54.756;9.192;2023-08-24T02:15:10;15.40;99.90
11540;DHT22;5826;54.756;9.192;2023-08-24T02:17:36;15.40;99.90
11540;DHT22;5826;54.756;9.192;2023-08-24T02:20:01;15.30;99.90
11540;DHT22;5826;54.756;9.192;2023-08-24T02:22:29;15.30;99.90
11540;DHT22;5826;54.756;9.192;2023-08-24T02:24:55;15.30;99.90
11540;DHT22;5826;54.756;9.192;2023-08-24T02:27:20;15.30;99.90
11540;DHT22;5826;54.756;9.192;2023-08-24T02:29:46;15.20;99.90
11540;DHT22;5826;54.756;9.192;2023-08-24T02:32:11;15.20;99.90
11540;DHT22;5826;54.756;9.192;2023-08-24T02:34:37;15.20;99.90
11540;DHT22;5826;54.756;9.192;2023-08-24T02:37:04;15.10;99.90
11540;DHT22;5826;54.756;9.192;2023-08-24T02:39:29;15.10;99.90
11540;DHT22;5826;54.756;9.192;2023-08-24T02:41:55;15.10;99.90
11540;DHT22;5826;54.756;9.192;2023-08-24T02:44:20;15.10;99.90
11540;DHT22;5826;54.756;9.192;2023-08-24T02:46:47;15.10;99.90
11540;DHT22;5826;54.756;9.192;2023-08-24T02:49:13;15.00;99.90
11540;DHT22;5826;54.756;9.192;2023-08-24T02:51:39;15.00;99.90
11540;DHT22;5826;54.756;9.192;2023-08-24T02:54:05;15.00;99.90
11540;DHT22;5826;54.756;9.192;2023-08-24T02:56:30;15.00;99.90
11540;DHT22;5826;54.756;9.192;2023-08-24T02:58:56;15.00;99.90
11540;DHT22;5826;54.756;9.192;2023-08-24T03:01:21;14.90;99.90
11540;DHT22;5826;54.756;9.192;2023-08-24T03:03:47;15.00;99.90
11540;DHT22;5826;54.756;9.192;2023-08-24T03:06:12;14.90;99.90
11540;DHT22;5826;54.756;9.192;2023-08-24T03:08:38;14.90;99.90
11540;DHT22;5826;54.756;9.192;2023-08-24T03:11:03;14.90;99.90
11540;DHT22;5826;54.756;9.192;2023-08-24T03:13:30;14.90;99.90
11540;DHT22;5826;54.756;9.192;2023-08-24T03:15:56;14.80;99.90
11540;DHT22;5826;54.756;9.192;2023-08-24T03:18:22;14.80;99.90
11540;DHT22;5826;54.756;9.192;2023-08-24T03:20:48;14.80;99.90
11540;DHT22;5826;54.756;9.192;2023-08-24T03:23:15;14.80;99.90
11540;DHT22;5826;54.756;9.192;2023-08-24T03:25:41;14.70;99.90
11540;DHT22;5826;54.756;9.192;2023-08-24T03:28:08;14.70;99.90
11540;DHT22;5826;54.756;9.192;2023-08-24T03:30:35;14.70;99.90
11540;DHT22;5826;54.756;9.192;2023-08-24T03:33:01;14.70;99.90
11540;DHT22;5826;54.756;9.192;2023-08-24T03:35:31;14.70;99.90
11540;DHT22;5826;54.756;9.192;2023-08-24T03:37:57;14.70;99.90
11540;DHT22;5826;54.756;9.192;2023-08-24T03:40:22;14.60;99.90
11540;DHT22;5826;54.756;9.192;2023-08-24T03:42:48;14.60;99.90
11540;DHT22;5826;54.756;9.192;2023-08-24T03:45:14;14.70;99.90
11540;DHT22;5826;54.756;9.192;2023-08-24T03:47:39;14.60;99.90
11540;DHT22;5826;54.756;9.192;2023-08-24T03:50:05;14.60;99.90
11540;DHT22;5826;54.756;9.192;2023-08-24T03:52:31;14.60;99.90
11540;DHT22;5826;54.756;9.192;2023-08-24T03:54:57;14.60;99.90
11540;DHT22;5826;54.756;9.192;2023-08-24T03:57:22;14.60;99.90
11540;DHT22;5826;54.756;9.192;2023-08-24T03:59:48;14.60;99.90
11540;DHT22;5826;54.756;9.192;2023-08-24T04:02:14;14.60;99.90
11540;DHT22;5826;54.756;9.192;2023-08-24T04:04:39;14.60;99.90
11540;DHT22;5826;54.756;9.192;2023-08-24T04:07:05;14.50;99.90
11540;DHT22;5826;54.756;9.192;2023-08-24T04:09:30;14.50;99.90
11540;DHT22;5826;54.756;9.192;2023-08-24T04:11:56;14.50;99.90
11540;DHT22;5826;54.756;9.192;2023-08-24T04:14:21;14.40;99.90
11540;DHT22;5826;54.756;9.192;2023-08-24T04:16:47;14.40;99.90
11540;DHT22;5826;54.756;9.192;2023-08-24T04:19:13;14.40;99.90
11540;DHT22;5826;54.756;9.192;2023-08-24T04:21:38;14.40;99.90
11540;DHT22;5826;54.756;9.192;2023-08-24T04:24:04;14.50;99.90
11540;DHT22;5826;54.756;9.192;2023-08-24T04:26:30;14.40;99.90
11540;DHT22;5826;54.756;9.192;2023-08-24T04:28:56;14.50;99.90
11540;DHT22;5826;54.756;9.192;2023-08-24T04:31:21;14.50;99.90
11540;DHT22;5826;54.756;9.192;2023-08-24T04:33:47;14.50;99.90
11540;DHT22;5826;54.756;9.192;2023-08-24T04:36:12;14.50;99.90
11540;DHT22;5826;54.756;9.192;2023-08-24T04:38:38;14.50;99.90
11540;DHT22;5826;54.756;9.192;2023-08-24T04:41:03;14.50;99.90
11540;DHT22;5826;54.756;9.192;2023-08-24T04:43:32;14.50;99.90
11540;DHT22;5826;54.756;9.192;2023-08-24T04:45:58;14.50;99.90
11540;DHT22;5826;54.756;9.192;2023-08-24T04:48:24;14.60;99.90
11540;DHT22;5826;54.756;9.192;2023-08-24T04:50:51;14.60;99.90
11540;DHT22;5826;54.756;9.192;2023-08-24T04:53:19;14.60;99.90
11540;DHT22;5826;54.756;9.192;2023-08-24T04:55:45;14.60;99.90
11540;DHT22;5826;54.756;9.192;2023-08-24T04:58:11;14.60;99.90
11540;DHT22;5826;54.756;9.192;2023-08-24T05:00:37;14.60;99.90
11540;DHT22;5826;54.756;9.192;2023-08-24T05:03:07;14.70;99.90
11540;DHT22;5826;54.756;9.192;2023-08-24T05:05:33;14.70;99.90
11540;DHT22;5826;54.756;9.192;2023-08-24T05:08:00;14.70;99.90
11540;DHT22;5826;54.756;9.192;2023-08-24T05:10:26;14.70;99.90
11540;DHT22;5826;54.756;9.192;2023-08-24T05:12:55;14.70;99.90
11540;DHT22;5826;54.756;9.192;2023-08-24T05:15:20;14.80;99.90
11540;DHT22;5826;54.756;9.192;2023-08-24T05:17:46;14.80;99.90
11540;DHT22;5826;54.756;9.192;2023-08-24T05:20:11;14.80;99.90
11540;DHT22;5826;54.756;9.192;2023-08-24T05:22:37;14.90;99.90
11540;DHT22;5826;54.756;9.192;2023-08-24T05:25:03;14.90;99.90
11540;DHT22;5826;54.756;9.192;2023-08-24T05:27:30;14.90;99.90
11540;DHT22;5826;54.756;9.192;2023-08-24T05:29:55;14.90;99.90
11540;DHT22;5826;54.756;9.192;2023-08-24T05:32:21;14.90;99.90
11540;DHT22;5826;54.756;9.192;2023-08-24T05:34:47;15.00;99.90
11540;DHT22;5826;54.756;9.192;2023-08-24T05:37:12;15.10;99.90
11540;DHT22;5826;54.756;9.192;2023-08-24T05:39:37;15.10;99.90
11540;DHT22;5826;54.756;9.192;2023-08-24T05:42:04;15.10;99.90
11540;DHT22;5826;54.756;9.192;2023-08-24T05:44:29;15.20;99.90
11540;DHT22;5826;54.756;9.192;2023-08-24T05:46:55;15.20;99.90
11540;DHT22;5826;54.756;9.192;2023-08-24T05:49:20;15.30;99.90
11540;DHT22;5826;54.756;9.192;2023-08-24T05:51:46;15.40;99.90
11540;DHT22;5826;54.756;9.192;2023-08-24T05:54:11;15.40;99.90
11540;DHT22;5826;54.756;9.192;2023-08-24T05:56:38;15.50;99.90
11540;DHT22;5826;54.756;9.192;2023-08-24T05:59:04;15.60;99.90
11540;DHT22;5826;54.756;9.192;2023-08-24T06:01:29;15.70;99.90
11540;DHT22;5826;54.756;9.192;2023-08-24T06:03:55;15.70;99.90
11540;DHT22;5826;54.756;9.192;2023-08-24T06:06:20;15.80;99.90
11540;DHT22;5826;54.756;9.192;2023-08-24T06:08:46;15.80;99.90
11540;DHT22;5826;54.756;9.192;2023-08-24T06:11:11;15.90;99.90
11540;DHT22;5826;54.756;9.192;2023-08-24T06:13:37;15.90;99.90
11540;DHT22;5826;54.756;9.192;2023-08-24T06:16:02;16.00;99.90
11540;DHT22;5826;54.756;9.192;2023-08-24T06:18:28;16.10;99.90
11540;DHT22;5826;54.756;9.192;2023-08-24T06:20:54;16.20;99.90
11540;DHT22;5826;54.756;9.192;2023-08-24T06:23:19;16.30;99.90
11540;DHT22;5826;54.756;9.192;2023-08-24T06:25:45;16.40;99.90
11540;DHT22;5826;54.756;9.192;2023-08-24T06:28:11;16.50;99.90
11540;DHT22;5826;54.756;9.192;2023-08-24T06:30:38;16.60;99.90
11540;DHT22;5826;54.756;9.192;2023-08-24T06:33:05;16.70;99.90
11540;DHT22;5826;54.756;9.192;2023-08-24T06:35:31;16.90;99.90
11540;DHT22;5826;54.756;9.192;2023-08-24T06:37:57;16.90;99.90
11540;DHT22;5826;54.756;9.192;2023-08-24T06:40:22;17.00;99.90
11540;DHT22;5826;54.756;9.192;2023-08-24T06:42:48;17.10;99.90
11540;DHT22;5826;54.756;9.192;2023-08-24T06:45:13;17.10;99.90
11540;DHT22;5826;54.756;9.192;2023-08-24T06:47:39;17.10;99.90
11540;DHT22;5826;54.756;9.192;2023-08-24T06:50:06;17.10;99.90
11540;DHT22;5826;54.756;9.192;2023-08-24T06:52:31;17.10;99.90
11540;DHT22;5826;54.756;9.192;2023-08-24T06:54:57;17.10;99.90
11540;DHT22;5826;54.756;9.192;2023-08-24T06:57:23;17.20;99.90
11540;DHT22;5826;54.756;9.192;2023-08-24T06:59:48;17.30;99.90
11540;DHT22;5826;54.756;9.192;2023-08-24T07:02:14;17.30;99.90
11540;DHT22;5826;54.756;9.192;2023-08-24T07:04:40;17.40;99.90
11540;DHT22;5826;54.756;9.192;2023-08-24T07:07:06;17.40;99.90
11540;DHT22;5826;54.756;9.192;2023-08-24T07:09:32;17.50;99.90
11540;DHT22;5826;54.756;9.192;2023-08-24T07:11:57;17.50;99.90
11540;DHT22;5826;54.756;9.192;2023-08-24T07:14:23;17.50;99.90
11540;DHT22;5826;54.756;9.192;2023-08-24T07:16:48;17.50;99.90
11540;DHT22;5826;54.756;9.192;2023-08-24T07:19:14;17.50;99.90
11540;DHT22;5826;54.756;9.192;2023-08-24T07:21:39;17.60;99.90
11540;DHT22;5826;54.756;9.192;2023-08-24T07:24:05;17.60;99.90
11540;DHT22;5826;54.756;9.192;2023-08-24T07:26:31;17.70;99.90
11540;DHT22;5826;54.756;9.192;2023-08-24T07:28:56;17.70;99.90
11540;DHT22;5826;54.756;9.192;2023-08-24T07:31:22;17.90;99.90
11540;DHT22;5826;54.756;9.192;2023-08-24T07:33:48;18.00;99.90
11540;DHT22;5826;54.756;9.192;2023-08-24T07:36:14;18.10;99.90
11540;DHT22;5826;54.756;9.192;2023-08-24T07:38:39;18.20;99.90
11540;DHT22;5826;54.756;9.192;2023-08-24T07:41:05;18.30;99.90
11540;DHT22;5826;54.756;9.192;2023-08-24T07:43:32;18.30;99.90
11540;DHT22;5826;54.756;9.192;2023-08-24T07:45:57;18.40;99.90
11540;DHT22;5826;54.756;9.192;2023-08-24T07:48:23;18.40;99.90
11540;DHT22;5826;54.756;9.192;2023-08-24T07:50:48;18.50;99.90
11540;DHT22;5826;54.756;9.192;2023-08-24T07:53:14;18.60;99.90
11540;DHT22;5826;54.756;9.192;2023-08-24T07:55:40;18.70;99.90
11540;DHT22;5826;54.756;9.192;2023-08-24T07:58:06;18.90;99.90
11540;DHT22;5826;54.756;9.192;2023-08-24T08:00:31;19.00;99.90
11540;DHT22;5826;54.756;9.192;2023-08-24T08:02:57;19.10;99.90
11540;DHT22;5826;54.756;9.192;2023-08-24T08:05:22;19.10;99.90
11540;DHT22;5826;54.756;9.192;2023-08-24T08:07:48;19.00;99.90
11540;DHT22;5826;54.756;9.192;2023-08-24T08:10:14;19.00;99.90
11540;DHT22;5826;54.756;9.192;2023-08-24T08:12:42;19.00;99.90
11540;DHT22;5826;54.756;9.192;2023-08-24T08:15:08;19.10;99.90
11540;DHT22;5826;54.756;9.192;2023-08-24T08:29:38;19.10;99.90
11540;DHT22;5826;54.756;9.192;2023-08-24T08:32:04;19.00;99.90
11540;DHT22;5826;54.756;9.192;2023-08-24T08:34:31;19.00;99.90
11540;DHT22;5826;54.756;9.192;2023-08-24T08:36:56;19.10;99.90
11540;DHT22;5826;54.756;9.192;2023-08-24T08:39:22;19.30;99.90
11540;DHT22;5826;54.756;9.192;2023-08-24T08:41:48;19.40;99.90
11540;DHT22;5826;54.756;9.192;2023-08-24T08:44:14;19.60;99.90
11540;DHT22;5826;54.756;9.192;2023-08-24T08:46:42;19.70;99.90
11540;DHT22;5826;54.756;9.192;2023-08-24T08:49:08;19.80;99.90
11540;DHT22;5826;54.756;9.192;2023-08-24T10:40:43;21.70;99.90
11540;DHT22;5826;54.756;9.192;2023-08-24T10:43:09;21.80;99.90
11540;DHT22;5826;54.756;9.192;2023-08-24T10:58:36;22.30;99.90
11540;DHT22;5826;54.756;9.192;2023-08-24T11:01:02;22.70;99.90
11540;DHT22;5826;54.756;9.192;2023-08-24T11:03:32;22.60;99.90
11540;DHT22;5826;54.756;9.192;2023-08-24T11:05:58;22.40;99.90
11540;DHT22;5826;54.756;9.192;2023-08-24T11:08:44;22.30;99.90
11540;DHT22;5826;54.756;9.192;2023-08-24T11:11:23;22.20;99.90
11540;DHT22;5826;54.756;9.192;2023-08-24T11:14:21;22.40;99.90
11540;DHT22;5826;54.756;9.192;2023-08-24T11:16:58;22.30;99.90
11540;DHT22;5826;54.756;9.192;2023-08-24T11:19:24;23.20;99.90
11540;DHT22;5826;54.756;9.192;2023-08-24T11:21:51;23.10;99.90
11540;DHT22;5826;54.756;9.192;2023-08-24T11:24:17;23.60;99.90
11540;DHT22;5826;54.756;9.192;2023-08-24T11:26:47;23.70;99.90
11540;DHT22;5826;54.756;9.192;2023-08-24T11:29:14;23.90;99.90
11540;DHT22;5826;54.756;9.192;2023-08-24T11:31:41;24.00;99.90
11540;DHT22;5826;54.756;9.192;2023-08-24T11:34:07;24.10;99.90
11540;DHT22;5826;54.756;9.192;2023-08-24T11:36:49;24.20;99.90
11540;DHT22;5826;54.756;9.192;2023-08-24T11:39:19;24.30;99.90
11540;DHT22;5826;54.756;9.192;2023-08-24T11:42:00;24.30;99.90
11540;DHT22;5826;54.756;9.192;2023-08-24T11:44:26;24.30;99.90
11540;DHT22;5826;54.756;9.192;2023-08-24T11:46:51;24.30;99.90
11540;DHT22;5826;54.756;9.192;2023-08-24T11:49:17;24.20;99.90
11540;DHT22;5826;54.756;9.192;2023-08-24T11:51:43;24.30;99.90
11540;DHT22;5826;54.756;9.192;2023-08-24T11:54:08;24.40;99.90
11540;DHT22;5826;54.756;9.192;2023-08-24T11:56:43;24.30;99.90
11540;DHT22;5826;54.756;9.192;2023-08-24T11:59:16;24.20;99.90
11540;DHT22;5826;54.756;9.192;2023-08-24T12:01:42;24.20;99.90
11540;DHT22;5826;54.756;9.192;2023-08-24T12:04:08;24.20;99.90
11540;DHT22;5826;54.756;9.192;2023-08-24T12:06:34;24.20;99.90
11540;DHT22;5826;54.756;9.192;2023-08-24T12:09:00;24.10;99.90
11540;DHT22;5826;54.756;9.192;2023-08-24T12:11:26;24.10;99.90
11540;DHT22;5826;54.756;9.192;2023-08-24T12:13:55;24.20;99.90
11540;DHT22;5826;54.756;9.192;2023-08-24T12:16:22;24.30;99.90
11540;DHT22;5826;54.756;9.192;2023-08-24T12:18:53;24.30;99.90
11540;DHT22;5826;54.756;9.192;2023-08-24T12:21:19;24.50;99.90
11540;DHT22;5826;54.756;9.192;2023-08-24T12:24:04;24.70;99.90
11540;DHT22;5826;54.756;9.192;2023-08-24T12:26:34;25.00;99.90
11540;DHT22;5826;54.756;9.192;2023-08-24T12:29:05;25.50;99.90
11540;DHT22;5826;54.756;9.192;2023-08-24T12:31:31;25.30;99.90
11540;DHT22;5826;54.756;9.192;2023-08-24T12:34:07;25.30;99.90
11540;DHT22;5826;54.756;9.192;2023-08-24T12:36:37;25.30;99.90
11540;DHT22;5826;54.756;9.192;2023-08-24T12:39:04;25.90;99.90
11540;DHT22;5826;54.756;9.192;2023-08-24T12:41:31;25.20;99.90
11540;DHT22;5826;54.756;9.192;2023-08-24T12:43:57;25.20;99.90
11540;DHT22;5826;54.756;9.192;2023-08-24T12:46:23;25.30;99.90
11540;DHT22;5826;54.756;9.192;2023-08-24T12:48:49;25.40;99.90
11540;DHT22;5826;54.756;9.192;2023-08-24T12:51:15;25.70;99.90
11540;DHT22;5826;54.756;9.192;2023-08-24T12:53:41;25.80;99.90
11540;DHT22;5826;54.756;9.192;2023-08-24T12:56:06;25.90;99.90
11540;DHT22;5826;54.756;9.192;2023-08-24T12:58:32;26.00;99.90
11540;DHT22;5826;54.756;9.192;2023-08-24T13:00:58;25.90;99.90
11540;DHT22;5826;54.756;9.192;2023-08-24T13:03:24;25.70;99.90
11540;DHT22;5826;54.756;9.192;2023-08-24T13:05:49;25.50;99.90
11540;DHT22;5826;54.756;9.192;2023-08-24T13:08:15;25.20;99.90
11540;DHT22;5826;54.756;9.192;2023-08-24T13:10:40;24.90;99.90
11540;DHT22;5826;54.756;9.192;2023-08-24T13:13:07;24.60;99.90
11540;DHT22;5826;54.756;9.192;2023-08-24T13:15:32;24.40;99.90
11540;DHT22;5826;54.756;9.192;2023-08-24T13:17:58;24.30;99.90
11540;DHT22;5826;54.756;9.192;2023-08-24T13:20:24;24.20;99.90
11540;DHT22;5826;54.756;9.192;2023-08-24T13:22:51;24.00;99.90
11540;DHT22;5826;54.756;9.192;2023-08-24T13:25:16;23.90;99.90
11540;DHT22;5826;54.756;9.192;2023-08-24T13:27:42;23.80;99.90
11540;DHT22;5826;54.756;9.192;2023-08-24T13:30:08;23.80;99.90
11540;DHT22;5826;54.756;9.192;2023-08-24T13:32:33;23.70;99.90
11540;DHT22;5826;54.756;9.192;2023-08-24T13:35:00;23.60;99.90
11540;DHT22;5826;54.756;9.192;2023-08-24T13:37:26;23.50;99.90
11540;DHT22;5826;54.756;9.192;2023-08-24T13:39:51;23.40;99.90
11540;DHT22;5826;54.756;9.192;2023-08-24T13:42:17;23.30;99.90
11540;DHT22;5826;54.756;9.192;2023-08-24T13:44:43;23.30;99.90
11540;DHT22;5826;54.756;9.192;2023-08-24T13:47:09;23.20;99.90
11540;DHT22;5826;54.756;9.192;2023-08-24T13:49:35;23.20;99.90
11540;DHT22;5826;54.756;9.192;2023-08-24T13:52:00;23.10;99.90
11540;DHT22;5826;54.756;9.192;2023-08-24T13:54:26;23.10;99.90
11540;DHT22;5826;54.756;9.192;2023-08-24T13:56:52;22.80;99.90
11540;DHT22;5826;54.756;9.192;2023-08-24T13:59:19;22.90;99.90
11540;DHT22;5826;54.756;9.192;2023-08-24T14:01:45;22.90;99.90
11540;DHT22;5826;54.756;9.192;2023-08-24T14:04:10;22.90;99.90
11540;DHT22;5826;54.756;9.192;2023-08-24T14:06:36;22.80;99.90
11540;DHT22;5826;54.756;9.192;2023-08-24T14:09:06;22.70;99.90
11540;DHT22;5826;54.756;9.192;2023-08-24T14:11:32;22.60;99.90
11540;DHT22;5826;54.756;9.192;2023-08-24T14:13:58;22.60;99.90
11540;DHT22;5826;54.756;9.192;2023-08-24T14:16:24;22.60;99.90
11540;DHT22;5826;54.756;9.192;2023-08-24T14:18:51;22.50;99.90
11540;DHT22;5826;54.756;9.192;2023-08-24T14:21:17;22.50;99.90
11540;DHT22;5826;54.756;9.192;2023-08-24T14:23:43;22.40;99.90
11540;DHT22;5826;54.756;9.192;2023-08-24T14:26:08;22.30;99.90
11540;DHT22;5826;54.756;9.192;2023-08-24T14:31:12;22.20;99.90
11540;DHT22;5826;54.756;9.192;2023-08-24T14:33:38;22.20;99.90
11540;DHT22;5826;54.756;9.192;2023-08-24T14:36:03;22.10;99.90
11540;DHT22;5826;54.756;9.192;2023-08-24T14:38:29;22.10;99.90
11540;DHT22;5826;54.756;9.192;2023-08-24T14:40:54;22.10;99.90
11540;DHT22;5826;54.756;9.192;2023-08-24T14:43:20;22.10;99.90
11540;DHT22;5826;54.756;9.192;2023-08-24T14:45:45;22.10;99.90
11540;DHT22;5826;54.756;9.192;2023-08-24T14:48:11;22.00;99.90
11540;DHT22;5826;54.756;9.192;2023-08-24T14:50:40;22.50;99.90
11540;DHT22;5826;54.756;9.192;2023-08-24T14:53:05;22.00;99.90
11540;DHT22;5826;54.756;9.192;2023-08-24T14:55:31;21.90;99.90
11540;DHT22;5826;54.756;9.192;2023-08-24T14:57:56;21.80;99.90
11540;DHT22;5826;54.756;9.192;2023-08-24T15:00:24;21.80;99.90
11540;DHT22;5826;54.756;9.192;2023-08-24T15:02:49;21.70;99.90
11540;DHT22;5826;54.756;9.192;2023-08-24T15:05:15;22.00;99.90
11540;DHT22;5826;54.756;9.192;2023-08-24T15:07:40;21.80;99.90
11540;DHT22;5826;54.756;9.192;2023-08-24T15:10:06;21.60;99.90
11540;DHT22;5826;54.756;9.192;2023-08-24T15:12:32;21.60;99.90
11540;DHT22;5826;54.756;9.192;2023-08-24T15:14:59;21.60;99.90
11540;DHT22;5826;54.756;9.192;2023-08-24T15:17:25;21.60;99.90
11540;DHT22;5826;54.756;9.192;2023-08-24T15:19:52;21.70;99.90
11540;DHT22;5826;54.756;9.192;2023-08-24T15:22:17;21.70;99.90
11540;DHT22;5826;54.756;9.192;2023-08-24T15:24:43;21.70;99.90
11540;DHT22;5826;54.756;9.192;2023-08-24T15:27:08;21.70;99.90
11540;DHT22;5826;54.756;9.192;2023-08-24T15:29:34;21.70;99.90
11540;DHT22;5826;54.756;9.192;2023-08-24T15:32:00;21.70;99.90
11540;DHT22;5826;54.756;9.192;2023-08-24T15:34:25;21.70;99.90
11540;DHT22;5826;54.756;9.192;2023-08-24T15:36:51;21.70;99.90
11540;DHT22;5826;54.756;9.192;2023-08-24T15:39:19;21.70;99.90
11540;DHT22;5826;54.756;9.192;2023-08-24T15:41:44;21.70;99.90
11540;DHT22;5826;54.756;9.192;2023-08-24T15:44:09;21.70;99.90
11540;DHT22;5826;54.756;9.192;2023-08-24T15:46:35;21.60;99.90
11540;DHT22;5826;54.756;9.192;2023-08-24T15:49:00;21.60;99.90
11540;DHT22;5826;54.756;9.192;2023-08-24T15:51:26;21.60;99.90
11540;DHT22;5826;54.756;9.192;2023-08-24T15:53:52;21.60;99.90
11540;DHT22;5826;54.756;9.192;2023-08-24T15:56:18;21.60;99.90
11540;DHT22;5826;54.756;9.192;2023-08-24T15:58:43;21.50;99.90
11540;DHT22;5826;54.756;9.192;2023-08-24T16:01:09;21.50;99.90
11540;DHT22;5826;54.756;9.192;2023-08-24T16:03:35;21.40;99.90
11540;DHT22;5826;54.756;9.192;2023-08-24T16:06:00;21.40;99.90
11540;DHT22;5826;54.756;9.192;2023-08-24T16:08:26;21.40;99.90
11540;DHT22;5826;54.756;9.192;2023-08-24T16:10:55;21.30;99.90
11540;DHT22;5826;54.756;9.192;2023-08-24T16:13:22;21.30;99.90
11540;DHT22;5826;54.756;9.192;2023-08-24T16:15:48;21.30;99.90
11540;DHT22;5826;54.756;9.192;2023-08-24T16:18:13;21.30;99.90
11540;DHT22;5826;54.756;9.192;2023-08-24T16:20:39;21.20;99.90
11540;DHT22;5826;54.756;9.192;2023-08-24T16:23:04;21.20;99.90
11540;DHT22;5826;54.756;9.192;2023-08-24T16:25:30;21.20;99.90
11540;DHT22;5826;54.756;9.192;2023-08-24T16:27:57;21.20;99.90
11540;DHT22;5826;54.756;9.192;2023-08-24T16:30:23;21.10;99.90
11540;DHT22;5826;54.756;9.192;2023-08-24T16:32:48;21.10;99.90
11540;DHT22;5826;54.756;9.192;2023-08-24T16:35:14;21.00;99.90
11540;DHT22;5826;54.756;9.192;2023-08-24T16:37:39;21.00;99.90
11540;DHT22;5826;54.756;9.192;2023-08-24T16:40:05;21.00;99.90
11540;DHT22;5826;54.756;9.192;2023-08-24T16:42:32;20.90;99.90
11540;DHT22;5826;54.756;9.192;2023-08-24T16:44:57;20.90;99.90
11540;DHT22;5826;54.756;9.192;2023-08-24T16:47:23;20.80;99.90
11540;DHT22;5826;54.756;9.192;2023-08-24T16:49:48;20.70;99.90
11540;DHT22;5826;54.756;9.192;2023-08-24T16:52:13;20.70;99.90
11540;DHT22;5826;54.756;9.192;2023-08-24T16:54:39;20.60;99.90
11540;DHT22;5826;54.756;9.192;2023-08-24T16:57:05;20.60;99.90
11540;DHT22;5826;54.756;9.192;2023-08-24T16:59:30;20.60;99.90
11540;DHT22;5826;54.756;9.192;2023-08-24T17:01:56;20.50;99.90
11540;DHT22;5826;54.756;9.192;2023-08-24T17:04:21;20.50;99.90
11540;DHT22;5826;54.756;9.192;2023-08-24T17:06:47;20.50;99.90
11540;DHT22;5826;54.756;9.192;2023-08-24T17:09:13;20.40;99.90
11540;DHT22;5826;54.756;9.192;2023-08-24T17:11:39;20.40;99.90
11540;DHT22;5826;54.756;9.192;2023-08-24T17:14:05;20.30;99.90
11540;DHT22;5826;54.756;9.192;2023-08-24T17:16:30;20.30;99.90
11540;DHT22;5826;54.756;9.192;2023-08-24T17:18:56;20.30;99.90
11540;DHT22;5826;54.756;9.192;2023-08-24T17:21:22;20.20;99.90
11540;DHT22;5826;54.756;9.192;2023-08-24T17:23:47;20.20;99.90
11540;DHT22;5826;54.756;9.192;2023-08-24T17:26:13;20.20;99.90
11540;DHT22;5826;54.756;9.192;2023-08-24T17:28:38;20.20;99.90
11540;DHT22;5826;54.756;9.192;2023-08-24T17:31:04;20.10;99.90
11540;DHT22;5826;54.756;9.192;2023-08-24T17:33:31;20.10;99.90
11540;DHT22;5826;54.756;9.192;2023-08-24T17:35:57;20.00;99.90
11540;DHT22;5826;54.756;9.192;2023-08-24T17:38:28;20.00;99.90
11540;DHT22;5826;54.756;9.192;2023-08-24T17:41:00;20.00;99.90
11540;DHT22;5826;54.756;9.192;2023-08-24T17:43:27;19.90;99.90
11540;DHT22;5826;54.756;9.192;2023-08-24T17:45:53;19.90;99.90
11540;DHT22;5826;54.756;9.192;2023-08-24T17:48:18;19.80;99.90
11540;DHT22;5826;54.756;9.192;2023-08-24T17:50:52;19.70;99.90
11540;DHT22;5826;54.756;9.192;2023-08-24T17:53:17;19.70;99.90
11540;DHT22;5826;54.756;9.192;2023-08-24T17:55:43;19.60;99.90
11540;DHT22;5826;54.756;9.192;2023-08-24T17:58:08;19.60;99.90
11540;DHT22;5826;54.756;9.192;2023-08-24T18:00:34;19.50;99.90